sensor_id;sensor_type;location;lat;lon;timestamp;P1;durP1;ratioP1;P2;durP2;ratioP2
41943;SDS011;27636;52.610;13.244;2022-08-21T00:04:52;25.60;;;10.23;;
41943;SDS011;27636;52.610;13.244;2022-08-21T00:10:00;20.63;;;10.05;;
41943;SDS011;27636;52.610;13.244;2022-08-21T00:15:04;24.10;;;10.37;;
41943;SDS011;27636;52.610;13.244;2022-08-21T00:20:11;20.60;;;9.75;;
41943;SDS011;27636;52.610;13.244;2022-08-21T00:25:20;25.33;;;11.32;;
41943;SDS011;27636;52.610;13.244;2022-08-21T00:30:27;23.88;;;10.52;;
41943;SDS011;27636;52.610;13.244;2022-08-21T00:35:32;23.90;;;11.15;;
41943;SDS011;27636;52.610;13.244;2022-08-21T00:40:41;24.58;;;11.48;;
41943;SDS011;27636;52.610;13.244;2022-08-21T00:45:46;27.02;;;11.95;;
41943;SDS011;27636;52.610;13.244;2022-08-21T00:50:50;31.52;;;13.80;;
41943;SDS011;27636;52.610;13.244;2022-08-21T00:55:59;28.98;;;12.20;;
41943;SDS011;27636;52.610;13.244;2022-08-21T01:01:05;31.42;;;12.70;;
41943;SDS011;27636;52.610;13.244;2022-08-21T01:11:15;27.02;;;12.32;;
41943;SDS011;27636;52.610;13.244;2022-08-21T01:16:20;28.20;;;12.32;;
41943;SDS011;27636;52.610;13.244;2022-08-21T01:21:26;31.63;;;11.98;;
41943;SDS011;27636;52.610;13.244;2022-08-21T01:26:31;25.02;;;12.50;;
41943;SDS011;27636;52.610;13.244;2022-08-21T01:31:37;26.77;;;11.48;;
41943;SDS011;27636;52.610;13.244;2022-08-21T01:36:42;23.58;;;11.50;;
41943;SDS011;27636;52.610;13.244;2022-08-21T01:41:45;25.83;;;11.75;;
41943;SDS011;27636;52.610;13.244;2022-08-21T01:46:50;28.05;;;11.55;;
41943;SDS011;27636;52.610;13.244;2022-08-21T01:51:54;23.45;;;10.48;;
41943;SDS011;27636;52.610;13.244;2022-08-21T01:56:58;26.60;;;10.63;;
41943;SDS011;27636;52.610;13.244;2022-08-21T02:02:02;23.58;;;10.80;;
41943;SDS011;27636;52.610;13.244;2022-08-21T02:07:07;22.63;;;10.38;;
41943;SDS011;27636;52.610;13.244;2022-08-21T02:12:11;29.67;;;11.00;;
41943;SDS011;27636;52.610;13.244;2022-08-21T02:17:15;26.98;;;10.75;;
41943;SDS011;27636;52.610;13.244;2022-08-21T02:22:19;22.98;;;10.68;;
41943;SDS011;27636;52.610;13.244;2022-08-21T02:27:22;29.23;;;11.87;;
41943;SDS011;27636;52.610;13.244;2022-08-21T02:32:28;23.70;;;10.77;;
41943;SDS011;27636;52.610;13.244;2022-08-21T02:37:32;23.67;;;11.70;;
41943;SDS011;27636;52.610;13.244;2022-08-21T02:42:35;24.10;;;11.07;;
41943;SDS011;27636;52.610;13.244;2022-08-21T02:47:39;28.27;;;11.25;;
41943;SDS011;27636;52.610;13.244;2022-08-21T02:52:43;21.90;;;9.77;;
41943;SDS011;27636;52.610;13.244;2022-08-21T02:57:53;22.13;;;11.10;;
41943;SDS011;27636;52.610;13.244;2022-08-21T03:02:57;29.25;;;10.23;;
41943;SDS011;27636;52.610;13.244;2022-08-21T03:08:04;25.10;;;10.55;;
41943;SDS011;27636;52.610;13.244;2022-08-21T03:13:12;19.95;;;10.02;;
41943;SDS011;27636;52.610;13.244;2022-08-21T03:18:15;20.15;;;9.52;;
41943;SDS011;27636;52.610;13.244;2022-08-21T03:23:21;22.45;;;9.90;;
41943;SDS011;27636;52.610;13.244;2022-08-21T03:28:25;22.40;;;9.63;;
41943;SDS011;27636;52.610;13.244;2022-08-21T03:33:28;18.90;;;8.00;;
41943;SDS011;27636;52.610;13.244;2022-08-21T03:38:33;17.60;;;9.00;;
41943;SDS011;27636;52.610;13.244;2022-08-21T03:43:37;20.48;;;9.07;;
41943;SDS011;27636;52.610;13.244;2022-08-21T03:48:41;20.52;;;8.82;;
41943;SDS011;27636;52.610;13.244;2022-08-21T03:53:45;21.95;;;10.15;;
41943;SDS011;27636;52.610;13.244;2022-08-21T03:58:48;20.30;;;9.83;;
41943;SDS011;27636;52.610;13.244;2022-08-21T04:03:51;18.65;;;8.70;;
41943;SDS011;27636;52.610;13.244;2022-08-21T04:08:56;26.90;;;9.55;;
41943;SDS011;27636;52.610;13.244;2022-08-21T04:13:59;21.30;;;8.53;;
41943;SDS011;27636;52.610;13.244;2022-08-21T04:19:02;21.77;;;9.70;;
41943;SDS011;27636;52.610;13.244;2022-08-21T04:24:07;16.42;;;8.85;;
41943;SDS011;27636;52.610;13.244;2022-08-21T04:29:12;18.15;;;9.40;;
41943;SDS011;27636;52.610;13.244;2022-08-21T04:34:15;25.77;;;10.00;;
41943;SDS011;27636;52.610;13.244;2022-08-21T04:39:19;19.90;;;8.82;;
41943;SDS011;27636;52.610;13.244;2022-08-21T04:44:26;21.33;;;9.25;;
41943;SDS011;27636;52.610;13.244;2022-08-21T04:49:29;16.83;;;8.77;;
41943;SDS011;27636;52.610;13.244;2022-08-21T04:54:34;20.40;;;8.63;;
41943;SDS011;27636;52.610;13.244;2022-08-21T04:59:39;23.98;;;8.38;;
41943;SDS011;27636;52.610;13.244;2022-08-21T05:04:46;18.65;;;8.95;;
41943;SDS011;27636;52.610;13.244;2022-08-21T05:09:54;19.38;;;8.77;;
41943;SDS011;27636;52.610;13.244;2022-08-21T05:14:57;21.92;;;9.18;;
41943;SDS011;27636;52.610;13.244;2022-08-21T05:20:00;19.20;;;9.20;;
41943;SDS011;27636;52.610;13.244;2022-08-21T05:25:06;17.15;;;7.45;;
41943;SDS011;27636;52.610;13.244;2022-08-21T05:30:12;19.20;;;7.75;;
41943;SDS011;27636;52.610;13.244;2022-08-21T05:35:16;15.80;;;8.13;;
41943;SDS011;27636;52.610;13.244;2022-08-21T05:40:20;15.45;;;7.32;;
41943;SDS011;27636;52.610;13.244;2022-08-21T05:45:27;18.35;;;6.80;;
41943;SDS011;27636;52.610;13.244;2022-08-21T05:50:45;13.85;;;7.20;;
41943;SDS011;27636;52.610;13.244;2022-08-21T05:55:51;13.00;;;6.70;;
41943;SDS011;27636;52.610;13.244;2022-08-21T06:00:54;12.10;;;5.90;;
41943;SDS011;27636;52.610;13.244;2022-08-21T06:05:58;12.55;;;5.68;;
41943;SDS011;27636;52.610;13.244;2022-08-21T06:11:03;9.45;;;4.25;;
41943;SDS011;27636;52.610;13.244;2022-08-21T06:16:08;7.45;;;4.28;;
41943;SDS011;27636;52.610;13.244;2022-08-21T06:21:17;9.10;;;3.88;;
41943;SDS011;27636;52.610;13.244;2022-08-21T06:26:22;8.15;;;4.05;;
41943;SDS011;27636;52.610;13.244;2022-08-21T06:31:26;11.50;;;3.70;;
41943;SDS011;27636;52.610;13.244;2022-08-21T06:36:30;9.40;;;3.05;;
41943;SDS011;27636;52.610;13.244;2022-08-21T06:41:35;9.93;;;3.70;;
41943;SDS011;27636;52.610;13.244;2022-08-21T06:46:41;10.88;;;3.25;;
41943;SDS011;27636;52.610;13.244;2022-08-21T06:51:48;14.27;;;2.88;;
41943;SDS011;27636;52.610;13.244;2022-08-21T06:56:54;6.93;;;2.75;;
41943;SDS011;27636;52.610;13.244;2022-08-21T07:01:57;16.13;;;5.03;;
41943;SDS011;27636;52.610;13.244;2022-08-21T07:07:00;9.02;;;3.10;;
41943;SDS011;27636;52.610;13.244;2022-08-21T07:12:05;5.63;;;2.70;;
41943;SDS011;27636;52.610;13.244;2022-08-21T07:22:11;6.60;;;2.00;;
41943;SDS011;27636;52.610;13.244;2022-08-21T07:27:17;7.43;;;2.03;;
41943;SDS011;27636;52.610;13.244;2022-08-21T07:32:20;4.40;;;1.80;;
41943;SDS011;27636;52.610;13.244;2022-08-21T07:37:23;5.00;;;1.60;;
41943;SDS011;27636;52.610;13.244;2022-08-21T07:42:28;3.58;;;1.65;;
41943;SDS011;27636;52.610;13.244;2022-08-21T07:47:31;5.93;;;2.08;;
41943;SDS011;27636;52.610;13.244;2022-08-21T07:52:44;7.38;;;1.88;;
41943;SDS011;27636;52.610;13.244;2022-08-21T07:57:48;6.15;;;1.80;;
41943;SDS011;27636;52.610;13.244;2022-08-21T08:02:52;6.53;;;1.80;;
41943;SDS011;27636;52.610;13.244;2022-08-21T08:07:56;6.70;;;1.57;;
41943;SDS011;27636;52.610;13.244;2022-08-21T08:13:01;5.43;;;1.42;;
41943;SDS011;27636;52.610;13.244;2022-08-21T08:23:10;8.38;;;2.72;;
41943;SDS011;27636;52.610;13.244;2022-08-21T08:28:15;8.30;;;2.75;;
41943;SDS011;27636;52.610;13.244;2022-08-21T08:33:19;11.02;;;3.08;;
41943;SDS011;27636;52.610;13.244;2022-08-21T08:38:23;6.45;;;2.42;;
41943;SDS011;27636;52.610;13.244;2022-08-21T08:48:36;6.75;;;2.45;;
41943;SDS011;27636;52.610;13.244;2022-08-21T08:53:55;9.10;;;1.92;;
41943;SDS011;27636;52.610;13.244;2022-08-21T08:59:05;4.88;;;1.58;;
41943;SDS011;27636;52.610;13.244;2022-08-21T09:04:18;4.25;;;1.77;;
41943;SDS011;27636;52.610;13.244;2022-08-21T09:09:30;6.53;;;1.60;;
41943;SDS011;27636;52.610;13.244;2022-08-21T09:14:53;7.22;;;1.80;;
41943;SDS011;27636;52.610;13.244;2022-08-21T09:20:08;5.80;;;1.90;;
41943;SDS011;27636;52.610;13.244;2022-08-21T09:25:20;11.20;;;2.10;;
41943;SDS011;27636;52.610;13.244;2022-08-21T09:30:28;8.77;;;2.72;;
41943;SDS011;27636;52.610;13.244;2022-08-21T09:35:34;8.73;;;2.05;;
41943;SDS011;27636;52.610;13.244;2022-08-21T09:40:40;7.93;;;2.40;;
41943;SDS011;27636;52.610;13.244;2022-08-21T09:45:47;4.63;;;1.85;;
41943;SDS011;27636;52.610;13.244;2022-08-21T09:50:51;5.95;;;2.15;;
41943;SDS011;27636;52.610;13.244;2022-08-21T09:55:56;10.25;;;2.15;;
41943;SDS011;27636;52.610;13.244;2022-08-21T10:01:24;7.57;;;2.22;;
41943;SDS011;27636;52.610;13.244;2022-08-21T10:06:28;10.75;;;2.78;;
41943;SDS011;27636;52.610;13.244;2022-08-21T10:11:32;8.48;;;2.30;;
41943;SDS011;27636;52.610;13.244;2022-08-21T10:16:40;3.72;;;1.55;;
41943;SDS011;27636;52.610;13.244;2022-08-21T10:21:59;4.65;;;1.30;;
41943;SDS011;27636;52.610;13.244;2022-08-21T10:27:13;3.50;;;1.20;;
41943;SDS011;27636;52.610;13.244;2022-08-21T10:38:07;3.50;;;1.20;;
41943;SDS011;27636;52.610;13.244;2022-08-21T10:43:51;2.92;;;1.23;;
41943;SDS011;27636;52.610;13.244;2022-08-21T10:49:04;5.22;;;2.30;;
41943;SDS011;27636;52.610;13.244;2022-08-21T10:54:22;4.65;;;1.08;;
41943;SDS011;27636;52.610;13.244;2022-08-21T10:59:33;3.80;;;1.20;;
41943;SDS011;27636;52.610;13.244;2022-08-21T11:04:48;2.78;;;1.45;;
41943;SDS011;27636;52.610;13.244;2022-08-21T11:09:57;6.50;;;1.13;;
41943;SDS011;27636;52.610;13.244;2022-08-21T11:15:07;3.60;;;1.27;;
41943;SDS011;27636;52.610;13.244;2022-08-21T11:20:34;2.72;;;1.08;;
41943;SDS011;27636;52.610;13.244;2022-08-21T11:25:47;3.15;;;1.00;;
41943;SDS011;27636;52.610;13.244;2022-08-21T11:30:57;5.82;;;1.23;;
41943;SDS011;27636;52.610;13.244;2022-08-21T11:36:12;4.20;;;1.40;;
41943;SDS011;27636;52.610;13.244;2022-08-21T11:41:24;3.30;;;1.35;;
41943;SDS011;27636;52.610;13.244;2022-08-21T11:46:33;4.05;;;1.10;;
41943;SDS011;27636;52.610;13.244;2022-08-21T11:51:45;6.50;;;1.40;;
41943;SDS011;27636;52.610;13.244;2022-08-21T11:56:51;5.53;;;1.27;;
41943;SDS011;27636;52.610;13.244;2022-08-21T12:02:00;5.25;;;1.33;;
41943;SDS011;27636;52.610;13.244;2022-08-21T12:07:11;4.43;;;1.20;;
41943;SDS011;27636;52.610;13.244;2022-08-21T12:12:23;4.20;;;1.15;;
41943;SDS011;27636;52.610;13.244;2022-08-21T12:17:34;4.95;;;1.30;;
41943;SDS011;27636;52.610;13.244;2022-08-21T12:22:40;6.78;;;1.05;;
41943;SDS011;27636;52.610;13.244;2022-08-21T12:27:53;2.38;;;1.00;;
41943;SDS011;27636;52.610;13.244;2022-08-21T12:33:18;4.15;;;1.40;;
41943;SDS011;27636;52.610;13.244;2022-08-21T12:38:28;3.83;;;1.00;;
41943;SDS011;27636;52.610;13.244;2022-08-21T12:43:34;5.38;;;1.73;;
41943;SDS011;27636;52.610;13.244;2022-08-21T12:48:42;4.43;;;1.42;;
41943;SDS011;27636;52.610;13.244;2022-08-21T12:53:51;5.97;;;1.58;;
41943;SDS011;27636;52.610;13.244;2022-08-21T12:58:57;4.50;;;1.50;;
41943;SDS011;27636;52.610;13.244;2022-08-21T13:04:07;4.20;;;1.48;;
41943;SDS011;27636;52.610;13.244;2022-08-21T13:09:14;7.13;;;1.90;;
41943;SDS011;27636;52.610;13.244;2022-08-21T13:14:23;7.22;;;1.92;;
41943;SDS011;27636;52.610;13.244;2022-08-21T13:19:32;3.97;;;1.63;;
41943;SDS011;27636;52.610;13.244;2022-08-21T13:24:38;2.50;;;1.25;;
41943;SDS011;27636;52.610;13.244;2022-08-21T13:29:45;5.18;;;1.63;;
41943;SDS011;27636;52.610;13.244;2022-08-21T13:34:55;6.00;;;1.70;;
41943;SDS011;27636;52.610;13.244;2022-08-21T13:40:01;4.25;;;2.08;;
41943;SDS011;27636;52.610;13.244;2022-08-21T13:45:16;7.47;;;1.38;;
41943;SDS011;27636;52.610;13.244;2022-08-21T13:50:24;7.30;;;1.85;;
41943;SDS011;27636;52.610;13.244;2022-08-21T13:55:38;6.25;;;1.42;;
41943;SDS011;27636;52.610;13.244;2022-08-21T14:00:44;8.25;;;1.92;;
41943;SDS011;27636;52.610;13.244;2022-08-21T14:05:49;4.55;;;1.67;;
41943;SDS011;27636;52.610;13.244;2022-08-21T14:10:54;9.75;;;1.75;;
41943;SDS011;27636;52.610;13.244;2022-08-21T14:15:59;7.65;;;1.83;;
41943;SDS011;27636;52.610;13.244;2022-08-21T14:21:04;6.20;;;2.10;;
41943;SDS011;27636;52.610;13.244;2022-08-21T14:26:10;7.75;;;2.03;;
41943;SDS011;27636;52.610;13.244;2022-08-21T14:31:14;2.97;;;1.20;;
41943;SDS011;27636;52.610;13.244;2022-08-21T14:36:21;10.40;;;1.45;;
41943;SDS011;27636;52.610;13.244;2022-08-21T14:41:25;4.90;;;1.77;;
41943;SDS011;27636;52.610;13.244;2022-08-21T14:46:32;4.93;;;1.90;;
41943;SDS011;27636;52.610;13.244;2022-08-21T14:51:50;5.65;;;1.60;;
41943;SDS011;27636;52.610;13.244;2022-08-21T14:57:01;8.25;;;1.80;;
41943;SDS011;27636;52.610;13.244;2022-08-21T15:02:08;4.88;;;1.50;;
41943;SDS011;27636;52.610;13.244;2022-08-21T15:07:11;6.28;;;2.00;;
41943;SDS011;27636;52.610;13.244;2022-08-21T15:12:16;7.03;;;2.03;;
41943;SDS011;27636;52.610;13.244;2022-08-21T15:17:19;5.20;;;1.83;;
41943;SDS011;27636;52.610;13.244;2022-08-21T15:22:22;5.40;;;1.90;;
41943;SDS011;27636;52.610;13.244;2022-08-21T15:27:30;13.60;;;2.53;;
41943;SDS011;27636;52.610;13.244;2022-08-21T15:32:34;7.07;;;2.10;;
41943;SDS011;27636;52.610;13.244;2022-08-21T15:37:44;6.00;;;1.75;;
41943;SDS011;27636;52.610;13.244;2022-08-21T15:42:48;4.25;;;1.65;;
41943;SDS011;27636;52.610;13.244;2022-08-21T15:47:55;5.65;;;1.90;;
41943;SDS011;27636;52.610;13.244;2022-08-21T15:52:59;7.00;;;2.13;;
41943;SDS011;27636;52.610;13.244;2022-08-21T15:58:04;7.63;;;2.15;;
41943;SDS011;27636;52.610;13.244;2022-08-21T16:03:07;7.07;;;2.00;;
41943;SDS011;27636;52.610;13.244;2022-08-21T16:08:14;6.20;;;1.88;;
41943;SDS011;27636;52.610;13.244;2022-08-21T16:13:20;8.73;;;2.17;;
41943;SDS011;27636;52.610;13.244;2022-08-21T16:18:27;4.50;;;1.75;;
41943;SDS011;27636;52.610;13.244;2022-08-21T16:23:30;5.55;;;2.15;;
41943;SDS011;27636;52.610;13.244;2022-08-21T16:28:35;4.95;;;1.92;;
41943;SDS011;27636;52.610;13.244;2022-08-21T16:33:41;5.75;;;1.90;;
41943;SDS011;27636;52.610;13.244;2022-08-21T16:38:48;5.43;;;1.52;;
41943;SDS011;27636;52.610;13.244;2022-08-21T16:43:52;2.28;;;1.30;;
41943;SDS011;27636;52.610;13.244;2022-08-21T16:48:56;6.00;;;1.60;;
41943;SDS011;27636;52.610;13.244;2022-08-21T16:53:59;4.78;;;1.60;;
41943;SDS011;27636;52.610;13.244;2022-08-21T16:59:04;4.43;;;1.45;;
41943;SDS011;27636;52.610;13.244;2022-08-21T17:04:08;4.45;;;1.90;;
41943;SDS011;27636;52.610;13.244;2022-08-21T17:09:11;9.48;;;2.13;;
41943;SDS011;27636;52.610;13.244;2022-08-21T17:14:17;4.38;;;1.90;;
41943;SDS011;27636;52.610;13.244;2022-08-21T17:19:22;4.78;;;1.85;;
41943;SDS011;27636;52.610;13.244;2022-08-21T17:24:25;6.65;;;1.77;;
41943;SDS011;27636;52.610;13.244;2022-08-21T17:29:32;8.70;;;1.90;;
41943;SDS011;27636;52.610;13.244;2022-08-21T17:34:37;5.65;;;2.20;;
41943;SDS011;27636;52.610;13.244;2022-08-21T17:39:41;4.50;;;1.90;;
41943;SDS011;27636;52.610;13.244;2022-08-21T17:44:45;4.60;;;2.25;;
41943;SDS011;27636;52.610;13.244;2022-08-21T17:49:49;4.80;;;2.08;;
41943;SDS011;27636;52.610;13.244;2022-08-21T17:54:52;8.55;;;2.85;;
41943;SDS011;27636;52.610;13.244;2022-08-21T17:59:57;8.75;;;3.78;;
41943;SDS011;27636;52.610;13.244;2022-08-21T18:05:00;33.72;;;21.40;;
41943;SDS011;27636;52.610;13.244;2022-08-21T18:10:05;17.45;;;10.57;;
41943;SDS011;27636;52.610;13.244;2022-08-21T18:15:14;12.65;;;6.40;;
41943;SDS011;27636;52.610;13.244;2022-08-21T18:20:19;11.18;;;4.80;;
41943;SDS011;27636;52.610;13.244;2022-08-21T18:25:23;7.32;;;3.60;;
41943;SDS011;27636;52.610;13.244;2022-08-21T18:30:28;9.73;;;3.28;;
41943;SDS011;27636;52.610;13.244;2022-08-21T18:35:31;9.25;;;3.42;;
41943;SDS011;27636;52.610;13.244;2022-08-21T18:40:36;6.53;;;3.15;;
41943;SDS011;27636;52.610;13.244;2022-08-21T18:45:43;5.88;;;3.47;;
41943;SDS011;27636;52.610;13.244;2022-08-21T18:50:46;5.50;;;2.90;;
41943;SDS011;27636;52.610;13.244;2022-08-21T18:55:49;8.57;;;3.33;;
41943;SDS011;27636;52.610;13.244;2022-08-21T19:00:54;8.85;;;3.72;;
41943;SDS011;27636;52.610;13.244;2022-08-21T19:05:58;12.05;;;3.83;;
41943;SDS011;27636;52.610;13.244;2022-08-21T19:11:01;7.25;;;3.28;;
41943;SDS011;27636;52.610;13.244;2022-08-21T19:16:07;9.93;;;4.00;;
41943;SDS011;27636;52.610;13.244;2022-08-21T19:21:11;11.48;;;4.45;;
41943;SDS011;27636;52.610;13.244;2022-08-21T19:26:14;8.20;;;4.40;;
41943;SDS011;27636;52.610;13.244;2022-08-21T19:31:22;10.85;;;3.78;;
41943;SDS011;27636;52.610;13.244;2022-08-21T19:36:30;15.20;;;3.80;;
41943;SDS011;27636;52.610;13.244;2022-08-21T19:41:35;11.35;;;3.97;;
41943;SDS011;27636;52.610;13.244;2022-08-21T19:46:43;10.35;;;3.90;;
41943;SDS011;27636;52.610;13.244;2022-08-21T19:51:46;9.45;;;4.15;;
41943;SDS011;27636;52.610;13.244;2022-08-21T19:56:50;12.20;;;4.07;;
41943;SDS011;27636;52.610;13.244;2022-08-21T20:01:55;11.65;;;4.15;;
41943;SDS011;27636;52.610;13.244;2022-08-21T20:07:00;9.63;;;4.50;;
41943;SDS011;27636;52.610;13.244;2022-08-21T20:12:04;8.25;;;4.45;;
41943;SDS011;27636;52.610;13.244;2022-08-21T20:17:14;13.82;;;4.55;;
41943;SDS011;27636;52.610;13.244;2022-08-21T20:22:19;16.40;;;4.60;;
41943;SDS011;27636;52.610;13.244;2022-08-21T20:27:23;7.68;;;3.97;;
41943;SDS011;27636;52.610;13.244;2022-08-21T20:32:30;9.52;;;4.20;;
41943;SDS011;27636;52.610;13.244;2022-08-21T20:37:34;11.00;;;4.30;;
41943;SDS011;27636;52.610;13.244;2022-08-21T20:42:39;11.63;;;4.93;;
41943;SDS011;27636;52.610;13.244;2022-08-21T20:48:05;10.10;;;5.75;;
41943;SDS011;27636;52.610;13.244;2022-08-21T20:53:15;8.98;;;5.13;;
41943;SDS011;27636;52.610;13.244;2022-08-21T20:58:27;11.13;;;4.85;;
41943;SDS011;27636;52.610;13.244;2022-08-21T21:03:39;14.23;;;5.07;;
41943;SDS011;27636;52.610;13.244;2022-08-21T21:08:46;11.80;;;4.45;;
41943;SDS011;27636;52.610;13.244;2022-08-21T21:13:54;13.30;;;4.80;;
41943;SDS011;27636;52.610;13.244;2022-08-21T21:19:04;9.02;;;4.82;;
41943;SDS011;27636;52.610;13.244;2022-08-21T21:24:15;7.82;;;4.50;;
41943;SDS011;27636;52.610;13.244;2022-08-21T21:29:22;9.10;;;4.88;;
41943;SDS011;27636;52.610;13.244;2022-08-21T21:34:34;12.50;;;5.18;;
41943;SDS011;27636;52.610;13.244;2022-08-21T21:39:44;12.35;;;4.97;;
41943;SDS011;27636;52.610;13.244;2022-08-21T21:44:58;12.50;;;5.15;;
41943;SDS011;27636;52.610;13.244;2022-08-21T21:50:18;9.23;;;4.78;;
41943;SDS011;27636;52.610;13.244;2022-08-21T21:55:33;10.27;;;4.85;;
41943;SDS011;27636;52.610;13.244;2022-08-21T22:00:47;10.57;;;4.63;;
41943;SDS011;27636;52.610;13.244;2022-08-21T22:06:07;9.15;;;4.90;;
41943;SDS011;27636;52.610;13.244;2022-08-21T22:11:18;7.68;;;4.65;;
41943;SDS011;27636;52.610;13.244;2022-08-21T22:16:48;11.85;;;4.82;;
41943;SDS011;27636;52.610;13.244;2022-08-21T22:21:54;9.68;;;4.38;;
41943;SDS011;27636;52.610;13.244;2022-08-21T22:27:03;8.88;;;4.88;;
41943;SDS011;27636;52.610;13.244;2022-08-21T22:32:10;8.07;;;4.20;;
41943;SDS011;27636;52.610;13.244;2022-08-21T22:37:16;12.45;;;5.05;;
41943;SDS011;27636;52.610;13.244;2022-08-21T22:42:22;8.40;;;4.45;;
41943;SDS011;27636;52.610;13.244;2022-08-21T22:47:29;10.15;;;4.75;;
41943;SDS011;27636;52.610;13.244;2022-08-21T22:52:37;11.18;;;3.97;;
41943;SDS011;27636;52.610;13.244;2022-08-21T22:57:49;9.63;;;3.97;;
41943;SDS011;27636;52.610;13.244;2022-08-21T23:03:02;9.02;;;3.85;;
41943;SDS011;27636;52.610;13.244;2022-08-21T23:08:14;10.40;;;4.65;;
41943;SDS011;27636;52.610;13.244;2022-08-21T23:13:27;7.72;;;3.92;;
41943;SDS011;27636;52.610;13.244;2022-08-21T23:18:42;9.63;;;4.15;;
41943;SDS011;27636;52.610;13.244;2022-08-21T23:23:59;8.95;;;4.45;;
41943;SDS011;27636;52.610;13.244;2022-08-21T23:29:23;7.57;;;3.95;;
41943;SDS011;27636;52.610;13.244;2022-08-21T23:34:36;7.45;;;4.18;;
41943;SDS011;27636;52.610;13.244;2022-08-21T23:39:52;8.43;;;4.22;;
41943;SDS011;27636;52.610;13.244;2022-08-21T23:45:26;7.78;;;3.90;;
41943;SDS011;27636;52.610;13.244;2022-08-21T23:50:39;12.18;;;4.63;;
41943;SDS011;27636;52.610;13.244;2022-08-21T23:55:54;8.27;;;4.03;;
